Time;durP1;ratioP1;P1;durP2;ratioP2;P2;SDS_P1;SDS_P2;PMS_P1;PMS_P2;Temp;Humidity;BMP_temperature;BMP_pressure;BME280_temperature;BME280_humidity;BME280_pressure;Samples;Min_cycle;Max_cycle;Signal;HPM_P1;HPM_P2
2022/10/22 00:00:33;;;;;;;2.58;2.35;;;23.40;42.50;;;;;;4969505;28;20058;-60
2022/10/22 00:03:00;;;;;;;2.50;2.30;;;23.40;42.50;;;;;;4968573;28;20057;-60
2022/10/22 00:05:28;;;;;;;2.63;2.42;;;23.40;42.40;;;;;;4968752;28;20134;-60
2022/10/22 00:07:55;;;;;;;3.40;2.28;;;23.40;42.40;;;;;;4969461;28;20491;-60
2022/10/22 00:10:22;;;;;;;2.55;2.35;;;23.40;42.40;;;;;;4969689;28;20077;-60
2022/10/22 00:12:49;;;;;;;2.95;2.45;;;23.40;42.40;;;;;;4969025;28;20051;-60
2022/10/22 00:15:16;;;;;;;2.38;2.17;;;23.40;42.40;;;;;;4968456;28;20503;-60
2022/10/22 00:17:43;;;;;;;2.33;2.13;;;23.40;42.40;;;;;;4969654;28;20082;-60
2022/10/22 00:20:10;;;;;;;2.22;2.03;;;23.40;42.40;;;;;;4964387;28;20231;-60
2022/10/22 00:22:37;;;;;;;2.95;2.53;;;23.40;42.40;;;;;;4968915;28;20059;-60
2022/10/22 00:25:05;;;;;;;2.65;2.40;;;23.40;42.40;;;;;;4969300;28;20582;-60
2022/10/22 00:27:32;;;;;;;2.92;2.60;;;23.40;42.40;;;;;;4969493;28;20050;-60
2022/10/22 00:29:59;;;;;;;2.35;2.22;;;23.40;42.40;;;;;;4968757;28;20105;-60
2022/10/22 00:32:26;;;;;;;2.67;2.45;;;23.40;42.40;;;;;;4969379;28;20051;-60
2022/10/22 00:34:53;;;;;;;2.60;2.40;;;23.40;42.40;;;;;;4968444;28;20480;-60
2022/10/22 00:37:20;;;;;;;2.67;2.47;;;23.40;42.40;;;;;;4969697;28;20050;-60
2022/10/22 00:39:48;;;;;;;2.30;2.10;;;23.40;42.40;;;;;;4968935;28;20047;-60
2022/10/22 00:42:21;;;;;;;4.53;2.35;;;23.40;42.40;;;;;;4969358;28;20054;-61
2022/10/22 00:45:16;;;;;;;2.50;2.30;;;23.40;42.40;;;;;;4968666;28;20054;-60
2022/10/22 00:48:04;;;;;;;2.20;1.98;;;23.40;42.40;;;;;;4967530;28;20070;-60
2022/10/22 00:50:51;;;;;;;2.72;2.50;;;23.40;42.50;;;;;;4967740;28;20125;-60
2022/10/22 00:53:22;;;;;;;2.50;2.30;;;23.40;42.40;;;;;;4966923;28;20408;-60
2022/10/22 00:55:52;;;;;;;2.72;2.22;;;23.40;42.50;;;;;;4968245;28;20054;-60
2022/10/22 00:58:22;;;;;;;2.33;2.13;;;23.40;42.50;;;;;;4968832;28;20054;-60
2022/10/22 01:00:49;;;;;;;2.65;2.25;;;23.30;42.40;;;;;;4969211;28;20043;-60
2022/10/22 01:03:16;;;;;;;2.25;2.05;;;23.40;42.50;;;;;;4968827;28;20051;-60
2022/10/22 01:05:56;;;;;;;2.38;2.17;;;23.30;42.40;;;;;;4968394;28;20084;-60
2022/10/22 01:08:49;;;;;;;2.38;2.17;;;23.30;42.50;;;;;;4968505;28;20339;-60
2022/10/22 01:11:26;;;;;;;2.70;2.30;;;23.30;42.40;;;;;;4968084;28;20055;-60
2022/10/22 01:14:07;;;;;;;2.20;2.00;;;23.30;42.50;;;;;;4968783;28;20476;-60
2022/10/22 01:16:49;;;;;;;2.67;2.47;;;23.30;42.50;;;;;;4966323;28;20078;-60
2022/10/22 01:19:39;;;;;;;2.45;2.25;;;23.40;42.60;;;;;;4971826;28;20053;-60
2022/10/22 01:22:31;;;;;;;3.03;2.83;;;23.30;42.60;;;;;;4971670;28;20051;-60
2022/10/22 01:25:23;;;;;;;2.75;2.35;;;23.40;42.70;;;;;;4967784;28;20058;-60
2022/10/22 01:28:20;;;;;;;2.58;2.38;;;23.30;42.60;;;;;;4972338;28;20236;-60
2022/10/22 01:30:52;;;;;;;3.90;1.90;;;23.40;42.60;;;;;;4971813;28;20287;-60
2022/10/22 01:33:21;;;;;;;2.60;2.25;;;23.40;42.60;;;;;;4971893;28;20050;-60
2022/10/22 01:35:49;;;;;;;2.83;2.58;;;23.40;42.50;;;;;;4970954;28;20042;-61
2022/10/22 01:38:20;;;;;;;3.67;2.05;;;23.40;42.50;;;;;;4972809;28;20054;-60
2022/10/22 01:40:48;;;;;;;2.30;2.10;;;23.40;42.50;;;;;;4972435;28;20047;-60
2022/10/22 01:43:15;;;;;;;3.22;2.53;;;23.40;42.50;;;;;;4972068;28;20058;-60
2022/10/22 01:45:57;;;;;;;2.33;2.13;;;23.40;42.50;;;;;;4971472;28;20534;-60
2022/10/22 01:48:59;;;;;;;2.20;2.00;;;23.40;42.50;;;;;;4971121;28;20082;-60
2022/10/22 01:51:50;;;;;;;2.33;2.13;;;23.40;42.50;;;;;;4965371;28;20059;-62
2022/10/22 01:54:44;;;;;;;2.47;2.28;;;23.40;42.50;;;;;;4951830;28;20463;-60
2022/10/22 01:57:45;;;;;;;2.00;1.90;;;23.40;42.50;;;;;;4966690;28;20059;-60
2022/10/22 02:00:16;;;;;;;2.38;2.10;;;23.40;42.50;;;;;;4970353;28;20246;-60
2022/10/22 02:03:03;;;;;;;2.17;2.00;;;23.40;42.50;;;;;;4971788;28;20057;-60
2022/10/22 02:05:46;;;;;;;2.30;2.10;;;23.40;42.50;;;;;;4971705;28;20058;-61
2022/10/22 02:08:28;;;;;;;2.15;1.92;;;23.40;42.50;;;;;;4971919;28;20073;-60
2022/10/22 02:10:57;;;;;;;2.47;2.22;;;23.40;42.60;;;;;;4971633;28;20050;-60
2022/10/22 02:13:29;;;;;;;2.72;2.10;;;23.40;42.50;;;;;;4971209;28;20411;-60
2022/10/22 02:15:57;;;;;;;2.35;2.15;;;23.40;42.50;;;;;;4970780;28;20436;-61
2022/10/22 02:18:28;;;;;;;2.65;1.98;;;23.30;42.50;;;;;;4970894;28;20062;-60
2022/10/22 02:20:57;;;;;;;2.35;2.15;;;23.40;42.60;;;;;;4971552;28;20043;-60
2022/10/22 02:23:25;;;;;;;2.80;2.45;;;23.40;42.60;;;;;;4971010;28;20078;-60
2022/10/22 02:26:05;;;;;;;2.58;2.38;;;23.40;42.60;;;;;;4970144;28;20050;-60
2022/10/22 02:28:45;;;;;;;2.53;2.33;;;23.30;42.50;;;;;;4965487;28;20222;-61
2022/10/22 02:31:23;;;;;;;2.17;1.93;;;23.40;42.60;;;;;;4970492;28;20073;-61
2022/10/22 02:33:53;;;;;;;2.47;2.28;;;23.40;42.60;;;;;;4971457;28;20285;-61
2022/10/22 02:36:22;;;;;;;2.38;2.13;;;23.40;42.60;;;;;;4970065;28;20274;-60
2022/10/22 02:38:51;;;;;;;1.95;1.70;;;23.40;42.60;;;;;;4971995;28;20053;-60
2022/10/22 02:41:19;;;;;;;2.42;2.22;;;23.40;42.60;;;;;;4970722;28;20058;-60
2022/10/22 02:43:52;;;;;;;2.55;2.20;;;23.40;42.60;;;;;;4969366;28;20058;-60
2022/10/22 02:46:19;;;;;;;4.35;2.15;;;23.30;42.60;;;;;;4969779;28;20487;-60
2022/10/22 02:48:46;;;;;;;2.35;2.15;;;23.30;42.60;;;;;;4969841;28;20051;-61
2022/10/22 02:51:14;;;;;;;2.15;1.85;;;23.30;42.70;;;;;;4971676;28;20058;-61
2022/10/22 02:53:41;;;;;;;2.17;2.08;;;23.30;42.70;;;;;;4971161;28;20403;-61
2022/10/22 02:56:08;;;;;;;2.10;2.00;;;23.30;42.70;;;;;;4970441;28;20050;-60
2022/10/22 02:58:36;;;;;;;3.25;2.30;;;23.30;42.60;;;;;;4968777;28;20419;-60
2022/10/22 03:01:03;;;;;;;3.05;2.30;;;23.40;42.70;;;;;;4968373;28;20047;-61
2022/10/22 03:03:30;;;;;;;1.65;1.55;;;23.40;42.70;;;;;;4986376;28;20137;-60
2022/10/22 03:05:57;;;;;;;3.60;1.90;;;23.40;42.60;;;;;;4970573;28;20214;-61
2022/10/22 03:08:24;;;;;;;2.38;2.28;;;23.40;42.60;;;;;;4970156;28;20350;-60
2022/10/22 03:10:51;;;;;;;2.10;2.00;;;23.40;42.60;;;;;;4970387;28;20042;-61
2022/10/22 03:13:18;;;;;;;1.85;1.75;;;23.40;42.60;;;;;;4970151;28;20065;-60
2022/10/22 03:15:48;;;;;;;2.25;2.05;;;23.40;42.60;;;;;;4969917;28;20053;-61
2022/10/22 03:18:15;;;;;;;2.03;1.77;;;23.40;42.60;;;;;;4970264;28;20380;-60
2022/10/22 03:20:43;;;;;;;1.60;1.50;;;23.40;42.60;;;;;;4969979;28;20050;-61
2022/10/22 03:23:13;;;;;;;2.08;1.80;;;23.40;42.60;;;;;;4969114;28;20050;-60
2022/10/22 03:25:42;;;;;;;2.15;1.95;;;23.40;42.60;;;;;;4970012;28;20054;-60
2022/10/22 03:28:13;;;;;;;2.15;2.05;;;23.40;42.60;;;;;;4969908;28;20047;-60
2022/10/22 03:30:40;;;;;;;1.75;1.65;;;23.40;42.60;;;;;;4969491;28;20373;-60
2022/10/22 03:33:07;;;;;;;1.90;1.80;;;23.40;42.60;;;;;;4965314;28;20051;-60
2022/10/22 03:35:41;;;;;;;2.03;1.88;;;23.40;42.60;;;;;;4968663;28;20054;-60
2022/10/22 03:38:08;;;;;;;2.00;1.80;;;23.40;42.60;;;;;;4970228;28;20422;-60
2022/10/22 03:40:35;;;;;;;2.28;2.08;;;23.40;42.60;;;;;;4970103;28;20405;-60
2022/10/22 03:43:02;;;;;;;2.08;1.88;;;23.40;42.60;;;;;;4969880;28;20066;-60
2022/10/22 03:45:29;;;;;;;2.10;1.80;;;23.40;42.60;;;;;;4970345;28;20046;-60
2022/10/22 03:47:56;;;;;;;1.85;1.70;;;23.40;42.60;;;;;;4969292;28;20331;-61
2022/10/22 03:50:23;;;;;;;2.47;2.28;;;23.40;42.60;;;;;;4969980;28;20054;-60
2022/10/22 03:52:52;;;;;;;2.03;1.88;;;23.40;42.60;;;;;;4969516;28;20053;-61
2022/10/22 03:55:19;;;;;;;2.05;1.90;;;23.40;42.70;;;;;;4969491;28;20051;-60
2022/10/22 03:57:46;;;;;;;2.05;1.90;;;23.40;42.60;;;;;;4969821;28;20541;-63
2022/10/22 04:00:13;;;;;;;2.08;1.98;;;23.40;42.60;;;;;;4968448;28;20046;-61
2022/10/22 04:02:40;;;;;;;2.00;1.80;;;23.40;42.60;;;;;;4968921;28;20050;-61
2022/10/22 04:05:07;;;;;;;1.60;1.50;;;23.30;42.60;;;;;;4965659;28;20050;-60
2022/10/22 04:07:35;;;;;;;2.17;1.98;;;23.40;42.70;;;;;;4968980;28;20303;-61
2022/10/22 04:10:02;;;;;;;2.45;2.25;;;23.40;42.70;;;;;;4969653;28;20066;-61
2022/10/22 04:12:29;;;;;;;2.28;1.90;;;23.40;42.70;;;;;;4969255;28;20054;-60
2022/10/22 04:14:57;;;;;;;2.13;1.92;;;23.30;42.70;;;;;;4968749;28;20061;-61
2022/10/22 04:17:24;;;;;;;2.15;1.95;;;23.40;42.80;;;;;;4969986;28;20130;-60
2022/10/22 04:19:51;;;;;;;1.83;1.73;;;23.30;42.70;;;;;;4969414;28;20195;-61
2022/10/22 04:22:18;;;;;;;1.70;1.60;;;23.30;42.80;;;;;;4969083;28;20051;-60
2022/10/22 04:24:45;;;;;;;1.98;1.77;;;23.30;42.80;;;;;;4969099;28;20042;-60
2022/10/22 04:27:12;;;;;;;2.15;1.98;;;23.30;42.80;;;;;;4969278;28;20058;-61
2022/10/22 04:29:39;;;;;;;2.20;2.00;;;23.30;42.80;;;;;;4969855;28;20089;-61
2022/10/22 04:32:06;;;;;;;2.70;2.00;;;23.30;42.70;;;;;;4969449;28;20287;-61
2022/10/22 04:34:33;;;;;;;1.92;1.80;;;23.30;42.70;;;;;;4968734;28;20057;-60
2022/10/22 04:37:00;;;;;;;1.65;1.52;;;23.40;42.70;;;;;;4964235;28;20050;-60
2022/10/22 04:39:27;;;;;;;2.17;1.77;;;23.40;42.60;;;;;;4968563;28;20050;-61
2022/10/22 04:41:55;;;;;;;2.35;2.15;;;23.40;42.60;;;;;;4969111;28;20053;-61
2022/10/22 04:44:22;;;;;;;3.15;1.80;;;23.40;42.50;;;;;;4969035;28;20055;-60
2022/10/22 04:46:49;;;;;;;1.70;1.60;;;23.40;42.50;;;;;;4969138;28;20121;-60
2022/10/22 04:49:17;;;;;;;1.70;1.60;;;23.40;42.50;;;;;;4968646;28;20078;-60
2022/10/22 04:51:44;;;;;;;2.25;2.00;;;23.40;42.40;;;;;;4969506;28;20431;-60
2022/10/22 04:54:11;;;;;;;2.42;2.03;;;23.40;42.40;;;;;;4972173;28;20047;-60
2022/10/22 04:56:40;;;;;;;4.60;2.15;;;23.40;42.40;;;;;;4972715;28;20316;-60
2022/10/22 04:59:11;;;;;;;2.00;1.88;;;23.30;42.90;;;;;;4973383;28;20537;-60
2022/10/22 05:01:42;;;;;;;;;;;23.30;42.40;;;;;;4972798;28;20511;-61
2022/10/22 05:04:15;;;;;;;2.10;1.98;;;23.30;42.40;;;;;;4972110;28;19922;-60
2022/10/22 05:06:43;;;;;;;3.60;1.60;;;23.30;42.40;;;;;;4971230;28;20066;-60
2022/10/22 05:09:13;;;;;;;1.60;1.50;;;23.30;42.90;;;;;;4969553;28;20260;-60
2022/10/22 05:11:44;;;;;;;1.92;1.73;;;23.30;42.40;;;;;;4970757;28;20516;-60
2022/10/22 05:14:11;;;;;;;1.73;1.55;;;23.30;42.40;;;;;;4972852;28;20073;-60
2022/10/22 05:16:39;;;;;;;1.80;1.70;;;23.30;42.40;;;;;;4972992;28;20054;-60
2022/10/22 05:19:07;;;;;;;1.67;1.58;;;23.30;42.40;;;;;;4972223;28;20259;-61
2022/10/22 05:21:34;;;;;;;2.10;1.90;;;23.30;42.40;;;;;;4972476;28;20104;-60
2022/10/22 05:24:02;;;;;;;2.30;1.77;;;23.30;42.40;;;;;;4973064;28;20057;-61
2022/10/22 05:26:29;;;;;;;2.38;1.67;;;23.30;42.30;;;;;;4972498;28;20558;-60
2022/10/22 05:28:57;;;;;;;2.13;1.63;;;23.30;42.40;;;;;;4971866;28;20491;-60
2022/10/22 05:31:24;;;;;;;3.22;1.80;;;23.20;42.30;;;;;;4972507;28;20407;-60
2022/10/22 05:33:51;;;;;;;2.03;1.65;;;23.30;42.30;;;;;;4971052;28;20061;-60
2022/10/22 05:36:21;;;;;;;2.47;1.90;;;23.30;42.30;;;;;;4972448;28;20055;-61
2022/10/22 05:38:48;;;;;;;2.03;1.85;;;23.30;42.30;;;;;;4972293;28;20053;-60
2022/10/22 05:41:19;;;;;;;3.22;2.30;;;23.30;42.30;;;;;;4967961;28;20042;-60
2022/10/22 05:43:46;;;;;;;2.20;1.75;;;23.30;42.30;;;;;;4972115;28;20054;-60
2022/10/22 05:46:19;;;;;;;2.00;1.67;;;23.30;42.20;;;;;;4972135;28;20051;-61
2022/10/22 05:48:50;;;;;;;2.30;2.00;;;23.30;42.20;;;;;;4972486;28;20062;-60
2022/10/22 05:51:18;;;;;;;2.50;1.90;;;23.30;42.10;;;;;;4972284;28;20408;-60
2022/10/22 05:53:45;;;;;;;2.25;2.05;;;23.30;42.10;;;;;;4972000;28;20546;-60
2022/10/22 05:56:15;;;;;;;3.08;1.90;;;23.30;42.00;;;;;;4972471;28;20470;-60
2022/10/22 05:58:44;;;;;;;2.08;1.88;;;23.30;42.00;;;;;;4971663;28;20055;-60
2022/10/22 06:01:17;;;;;;;2.08;1.85;;;23.30;42.00;;;;;;4971394;28;20534;-61
2022/10/22 06:03:45;;;;;;;1.75;1.65;;;23.30;42.00;;;;;;4971058;28;20047;-61
2022/10/22 06:06:32;;;;;;;1.80;1.70;;;23.40;42.00;;;;;;4971461;28;20050;-61
2022/10/22 06:09:10;;;;;;;1.90;1.80;;;23.40;42.00;;;;;;4971805;28;20054;-60
2022/10/22 06:11:37;;;;;;;3.17;1.90;;;23.40;42.00;;;;;;4968898;28;20558;-60
2022/10/22 06:14:04;;;;;;;1.60;1.50;;;23.40;41.90;;;;;;4969149;28;20054;-60
2022/10/22 06:16:31;;;;;;;2.25;1.90;;;23.40;41.90;;;;;;4971979;28;20243;-60
2022/10/22 06:19:00;;;;;;;3.17;2.28;;;23.40;41.90;;;;;;4971367;28;20055;-60
2022/10/22 06:21:29;;;;;;;2.15;1.60;;;23.40;41.80;;;;;;4971512;28;20057;-61
2022/10/22 06:23:57;;;;;;;1.92;1.83;;;23.40;41.80;;;;;;4954656;28;20047;-60
2022/10/22 06:26:25;;;;;;;2.92;1.80;;;23.40;41.80;;;;;;4971842;28;20047;-61
2022/10/22 06:28:53;;;;;;;2.30;2.10;;;23.40;41.80;;;;;;4971681;28;20051;-60
2022/10/22 06:31:21;;;;;;;2.10;1.90;;;23.40;41.80;;;;;;4971751;28;20054;-61
2022/10/22 06:33:48;;;;;;;4.07;1.98;;;23.40;41.70;;;;;;4971436;28;20051;-60
2022/10/22 06:36:17;;;;;;;2.42;1.90;;;23.40;41.70;;;;;;4970300;28;20439;-61
2022/10/22 06:38:44;;;;;;;2.13;1.93;;;23.40;41.70;;;;;;4971115;28;20047;-60
2022/10/22 06:41:14;;;;;;;2.35;2.17;;;23.40;41.60;;;;;;4971408;28;20284;-60
2022/10/22 06:43:47;;;;;;;1.97;1.73;;;23.40;41.60;;;;;;4970766;28;20054;-60
2022/10/22 06:46:16;;;;;;;3.83;2.42;;;23.40;41.50;;;;;;4965922;28;20051;-61
2022/10/22 06:48:51;;;;;;;4.07;2.05;;;23.50;41.50;;;;;;4970907;28;20442;-60
2022/10/22 06:51:20;;;;;;;2.33;2.13;;;23.50;41.60;;;;;;4970959;28;20495;-61
2022/10/22 06:53:47;;;;;;;2.50;2.10;;;23.50;41.50;;;;;;4971193;28;20049;-60
2022/10/22 06:56:17;;;;;;;2.58;1.90;;;23.50;41.40;;;;;;4971383;28;20203;-60
2022/10/22 06:58:47;;;;;;;1.83;1.73;;;23.50;41.30;;;;;;4971172;28;20051;-61
2022/10/22 07:01:16;;;;;;;1.83;1.73;;;23.60;41.40;;;;;;4969984;28;20043;-60
2022/10/22 07:03:43;;;;;;;3.20;2.13;;;23.60;41.40;;;;;;4970683;28;20519;-60
2022/10/22 07:06:13;;;;;;;2.58;2.20;;;23.60;41.30;;;;;;4969424;28;20431;-60
2022/10/22 07:08:41;;;;;;;3.08;2.33;;;23.60;41.30;;;;;;4970455;28;20051;-61
2022/10/22 07:11:14;;;;;;;3.58;2.03;;;23.60;41.20;;;;;;4970644;28;20051;-60
2022/10/22 07:13:42;;;;;;;2.10;1.90;;;23.60;41.20;;;;;;4961294;28;20506;-60
2022/10/22 07:16:10;;;;;;;2.70;1.83;;;23.70;41.10;;;;;;4969536;28;20058;-60
2022/10/22 07:18:38;;;;;;;2.30;2.10;;;23.70;41.10;;;;;;4965434;28;20059;-61
2022/10/22 07:21:06;;;;;;;3.53;2.20;;;23.70;41.10;;;;;;4970293;28;20047;-60
2022/10/22 07:23:34;;;;;;;2.85;2.28;;;23.70;41.00;;;;;;4970229;28;20050;-60
2022/10/22 07:26:01;;;;;;;2.58;2.20;;;23.80;41.00;;;;;;4969705;28;20404;-61
2022/10/22 07:28:29;;;;;;;4.68;2.15;;;23.70;41.00;;;;;;4970074;28;20066;-61
2022/10/22 07:30:56;;;;;;;2.72;2.35;;;23.80;41.10;;;;;;4969359;28;20058;-61
2022/10/22 07:33:23;;;;;;;2.53;2.28;;;23.80;41.00;;;;;;4970327;28;20047;-61
2022/10/22 07:35:56;;;;;;;2.58;2.05;;;23.90;41.00;;;;;;4969478;28;20054;-61
2022/10/22 07:38:23;;;;;;;3.83;2.42;;;23.90;40.90;;;;;;4969146;28;20058;-61
2022/10/22 07:40:50;;;;;;;2.30;2.10;;;23.90;40.80;;;;;;4969650;28;20274;-60
2022/10/22 07:43:17;;;;;;;2.30;2.10;;;24.00;40.80;;;;;;4969886;28;20407;-60
2022/10/22 07:45:44;;;;;;;2.88;2.15;;;24.00;40.70;;;;;;4969744;28;20446;-61
2022/10/22 07:48:12;;;;;;;3.30;2.50;;;24.00;40.60;;;;;;4969804;28;20046;-61
2022/10/22 07:50:40;;;;;;;1.90;1.80;;;24.10;40.50;;;;;;4965653;28;20047;-60
2022/10/22 07:53:07;;;;;;;2.10;1.90;;;24.10;40.50;;;;;;4969843;28;20434;-60
2022/10/22 07:55:34;;;;;;;2.35;1.90;;;24.10;40.40;;;;;;4969484;28;20054;-61
2022/10/22 07:58:01;;;;;;;2.42;2.00;;;24.10;40.30;;;;;;4969479;28;20066;-60
2022/10/22 08:00:28;;;;;;;1.92;1.75;;;24.10;40.20;;;;;;4969373;28;20483;-61
2022/10/22 08:02:55;;;;;;;2.55;1.90;;;24.20;40.20;;;;;;4969499;28;20070;-60
2022/10/22 08:05:23;;;;;;;2.28;2.05;;;24.20;40.20;;;;;;4968724;28;20054;-61
2022/10/22 08:07:50;;;;;;;2.72;2.17;;;24.20;40.10;;;;;;4968445;28;20054;-60
2022/10/22 08:10:17;;;;;;;2.22;2.03;;;24.30;40.00;;;;;;4969953;28;20043;-60
2022/10/22 08:12:44;;;;;;;3.08;2.20;;;24.30;39.90;;;;;;4969171;28;20142;-60
2022/10/22 08:15:11;;;;;;;2.35;1.67;;;24.30;39.80;;;;;;4968600;28;20475;-60
2022/10/22 08:17:38;;;;;;;4.20;2.20;;;24.30;39.60;;;;;;4969150;28;20050;-60
2022/10/22 08:20:06;;;;;;;4.45;2.20;;;24.40;39.60;;;;;;4968672;28;20051;-60
2022/10/22 08:22:33;;;;;;;2.90;2.53;;;24.40;39.50;;;;;;4964851;28;20522;-60
2022/10/22 08:25:00;;;;;;;2.20;2.00;;;24.50;39.40;;;;;;4968326;28;20046;-60
2022/10/22 08:27:28;;;;;;;1.95;1.80;;;24.50;39.80;;;;;;4966332;28;20059;-60
2022/10/22 08:29:55;;;;;;;3.42;2.10;;;24.50;39.20;;;;;;4966221;28;20060;-60
2022/10/22 08:32:22;;;;;;;1.83;1.73;;;24.50;39.10;;;;;;4968125;28;20584;-60
2022/10/22 08:34:49;;;;;;;3.03;2.67;;;24.50;39.00;;;;;;4968413;28;20105;-61
2022/10/22 08:37:16;;;;;;;2.30;2.08;;;24.50;38.90;;;;;;4968583;28;20057;-60
2022/10/22 08:39:44;;;;;;;2.00;1.80;;;24.50;39.40;;;;;;4969020;28;20389;-61
2022/10/22 08:42:44;;;;;;;2.63;1.80;;;24.50;38.80;;;;;;4969115;28;20054;-61
2022/10/22 08:45:18;;;;;;;;;;;24.60;38.90;;;;;;4969752;28;20054;-60
2022/10/22 08:48:17;;;;;;;1.77;1.67;;;24.60;38.80;;;;;;4969089;28;19922;-61
2022/10/22 08:50:51;;;;;;;1.65;1.55;;;24.60;38.90;;;;;;4968378;28;20428;-61
2022/10/22 08:53:29;;;;;;;2.00;1.88;;;24.70;38.80;;;;;;4967632;28;20492;-61
2022/10/22 08:55:57;;;;;;;1.85;1.75;;;24.70;38.70;;;;;;4964095;28;20039;-61
2022/10/22 08:58:44;;;;;;;2.40;2.20;;;24.70;38.70;;;;;;4968188;28;20414;-60
2022/10/22 09:01:15;;;;;;;2.58;1.98;;;24.70;38.70;;;;;;4968151;28;20062;-60
2022/10/22 09:03:51;;;;;;;3.78;2.15;;;24.70;38.40;;;;;;4967320;28;20055;-61
2022/10/22 09:06:28;;;;;;;2.08;1.88;;;24.80;38.40;;;;;;4969225;28;20050;-60
2022/10/22 09:08:57;;;;;;;2.30;2.10;;;24.80;38.30;;;;;;4966240;28;20511;-61
2022/10/22 09:11:36;;;;;;;2.72;2.00;;;24.90;38.30;;;;;;4968819;28;20039;-60
2022/10/22 09:14:04;;;;;;;3.55;1.70;;;24.90;38.10;;;;;;4968860;28;20055;-60
2022/10/22 09:17:02;;;;;;;2.75;1.98;;;24.90;38.10;;;;;;4967792;28;20094;-60
2022/10/22 09:19:44;;;;;;;2.13;1.85;;;24.90;38.00;;;;;;4968358;28;20055;-60
2022/10/22 09:22:47;;;;;;;2.05;1.90;;;24.90;38.20;;;;;;4968431;28;20523;-60
2022/10/22 09:25:25;;;;;;;2.13;1.92;;;24.90;37.90;;;;;;4967673;28;20467;-61
2022/10/22 09:27:57;;;;;;;2.58;2.38;;;24.90;38.00;;;;;;4967449;28;20492;-61
2022/10/22 09:30:28;;;;;;;2.00;1.90;;;24.90;37.90;;;;;;4965870;28;20109;-61
2022/10/22 09:33:16;;;;;;;3.35;2.60;;;24.90;37.90;;;;;;4966523;28;20042;-60
2022/10/22 09:35:56;;;;;;;2.42;1.88;;;25.00;37.90;;;;;;4968347;28;20054;-61
2022/10/22 09:38:29;;;;;;;2.33;2.10;;;25.00;37.90;;;;;;4968052;28;20055;-60
2022/10/22 09:40:59;;;;;;;1.83;1.73;;;25.00;37.90;;;;;;4971528;28;20058;-61
2022/10/22 09:43:26;;;;;;;2.00;1.80;;;25.00;38.00;;;;;;4972797;28;20057;-61
2022/10/22 09:45:59;;;;;;;2.33;2.10;;;25.00;37.90;;;;;;4971344;28;20078;-61
2022/10/22 09:48:33;;;;;;;2.30;1.58;;;24.90;37.90;;;;;;4972847;28;20058;-61
2022/10/22 09:51:22;;;;;;;1.42;1.17;;;25.00;37.90;;;;;;4971659;28;20054;-60
2022/10/22 09:53:58;;;;;;;1.92;1.80;;;25.00;37.90;;;;;;4971619;28;20057;-61
2022/10/22 09:56:32;;;;;;;2.17;1.90;;;25.00;38.00;;;;;;4971764;28;20042;-61
2022/10/22 09:58:59;;;;;;;2.50;1.92;;;25.00;38.00;;;;;;4972421;28;20051;-61
2022/10/22 10:01:33;;;;;;;2.47;1.98;;;25.10;38.00;;;;;;4966675;28;20050;-61
2022/10/22 10:04:06;;;;;;;1.83;1.73;;;25.00;38.00;;;;;;4970718;28;20191;-61
2022/10/22 10:06:39;;;;;;;3.83;1.70;;;25.10;38.10;;;;;;4972172;28;20047;-61
2022/10/22 10:09:16;;;;;;;4.18;2.17;;;25.10;38.10;;;;;;4970686;28;20051;-60
2022/10/22 10:12:11;;;;;;;3.10;2.05;;;25.10;38.20;;;;;;4971731;28;20133;-61
2022/10/22 10:15:13;;;;;;;2.25;1.88;;;25.10;38.30;;;;;;4970938;28;20314;-61
2022/10/22 10:18:14;;;;;;;1.95;1.58;;;25.10;38.30;;;;;;4972142;28;20380;-61
2022/10/22 10:21:13;;;;;;;2.08;1.73;;;25.10;38.30;;;;;;4970904;28;20055;-61
2022/10/22 10:24:01;;;;;;;2.00;1.90;;;25.10;38.20;;;;;;4970961;28;20065;-61
2022/10/22 10:26:49;;;;;;;2.45;2.20;;;25.20;38.30;;;;;;4970219;28;20054;-61
2022/10/22 10:29:44;;;;;;;4.05;1.63;;;25.20;38.30;;;;;;4972052;28;20062;-61
2022/10/22 10:32:47;;;;;;;2.85;2.40;;;25.20;38.30;;;;;;4969684;28;20051;-61
2022/10/22 10:35:35;;;;;;;4.22;2.00;;;25.20;38.20;;;;;;4971142;28;20054;-60
2022/10/22 10:38:21;;;;;;;1.80;1.60;;;25.20;38.30;;;;;;4970729;28;20463;-61
2022/10/22 10:41:23;;;;;;;2.15;1.95;;;25.20;38.30;;;;;;4969201;28;20081;-61
2022/10/22 10:44:15;;;;;;;1.77;1.67;;;25.20;38.20;;;;;;4970266;28;20047;-61
2022/10/22 10:47:22;;;;;;;2.10;1.90;;;25.20;38.30;;;;;;4970765;28;20515;-61
2022/10/22 10:49:53;;;;;;;1.90;1.80;;;25.20;38.20;;;;;;4970732;28;20050;-61
2022/10/22 10:52:42;;;;;;;1.63;1.52;;;25.20;38.20;;;;;;4970752;28;20478;-61
2022/10/22 10:55:31;;;;;;;4.32;2.30;;;25.30;38.20;;;;;;4970713;28;20347;-61
2022/10/22 10:58:24;;;;;;;2.30;2.10;;;25.30;38.20;;;;;;4970277;28;20055;-61
2022/10/22 11:00:56;;;;;;;2.30;2.10;;;25.30;38.20;;;;;;4954459;28;20043;-61
2022/10/22 11:03:50;;;;;;;3.58;2.72;;;25.30;38.20;;;;;;4969428;28;20058;-61
2022/10/22 11:06:19;;;;;;;1.67;1.58;;;25.30;38.20;;;;;;4966078;28;20078;-61
2022/10/22 11:08:58;;;;;;;5.28;2.00;;;25.40;38.30;;;;;;4969976;28;20050;-61
2022/10/22 11:11:35;;;;;;;2.10;1.90;;;25.30;38.20;;;;;;4970446;28;20043;-61
2022/10/22 11:14:10;;;;;;;3.40;1.67;;;25.40;38.30;;;;;;4969746;28;20054;-61
2022/10/22 11:17:02;;;;;;;2.50;2.30;;;25.40;38.30;;;;;;4969758;28;20051;-61
2022/10/22 11:20:02;;;;;;;2.70;2.40;;;25.40;38.30;;;;;;4970031;28;20380;-61
2022/10/22 11:22:36;;;;;;;4.93;2.30;;;25.30;38.30;;;;;;4969713;28;20043;-61
2022/10/22 11:25:17;;;;;;;3.35;2.03;;;25.30;38.30;;;;;;4970356;28;20573;-61
2022/10/22 11:28:08;;;;;;;3.20;2.05;;;25.30;38.40;;;;;;4969835;28;20388;-61
2022/10/22 11:30:40;;;;;;;2.13;1.90;;;25.20;38.40;;;;;;4969811;28;20043;-61
2022/10/22 11:33:14;;;;;;;2.67;1.90;;;25.20;38.40;;;;;;4969609;28;20510;-61
2022/10/22 11:35:44;;;;;;;4.68;2.17;;;25.30;38.60;;;;;;4968236;28;20054;-61
2022/10/22 11:38:19;;;;;;;2.42;2.17;;;25.30;38.60;;;;;;4963926;28;20047;-61
2022/10/22 11:40:53;;;;;;;3.20;2.10;;;25.30;38.60;;;;;;4967767;28;20056;-60
2022/10/22 11:43:34;;;;;;;2.03;1.70;;;25.30;38.60;;;;;;4970359;28;20047;-61
2022/10/22 11:46:25;;;;;;;2.50;2.30;;;25.30;38.50;;;;;;4969665;28;20054;-61
2022/10/22 11:49:17;;;;;;;2.40;2.20;;;25.40;38.60;;;;;;4969800;28;20051;-61
2022/10/22 11:51:45;;;;;;;4.03;2.38;;;25.40;38.60;;;;;;4969058;28;20057;-61
2022/10/22 11:54:43;;;;;;;2.75;2.30;;;25.40;38.60;;;;;;4969696;28;20490;-61
2022/10/22 11:57:26;;;;;;;8.18;2.35;;;25.40;38.60;;;;;;4968672;28;20062;-61
2022/10/22 11:59:58;;;;;;;2.75;2.35;;;25.40;38.60;;;;;;4969605;28;20055;-61
2022/10/22 12:02:37;;;;;;;2.45;2.13;;;25.40;38.60;;;;;;4969600;28;20399;-61
2022/10/22 12:05:33;;;;;;;3.80;2.45;;;25.40;38.60;;;;;;4968936;28;20528;-63
2022/10/22 12:08:22;;;;;;;2.75;2.25;;;25.40;38.60;;;;;;4969395;28;20190;-61
2022/10/22 12:11:13;;;;;;;3.50;2.70;;;25.40;38.50;;;;;;4963524;28;20046;-61
2022/10/22 12:14:21;;;;;;;4.35;2.33;;;25.50;38.70;;;;;;4969041;28;20517;-61
2022/10/22 12:17:07;;;;;;;2.70;2.50;;;25.50;38.70;;;;;;4968721;28;20047;-61
2022/10/22 12:19:43;;;;;;;2.40;2.20;;;25.40;38.70;;;;;;4968954;28;20402;-61
2022/10/22 12:22:28;;;;;;;3.55;2.05;;;25.50;38.80;;;;;;4969500;28;20050;-61
2022/10/22 12:24:59;;;;;;;2.58;1.88;;;25.50;38.90;;;;;;4968960;28;20050;-61
2022/10/22 12:27:39;;;;;;;2.92;2.33;;;25.40;38.90;;;;;;4967472;28;20047;-61
2022/10/22 12:30:18;;;;;;;3.25;2.60;;;25.40;39.10;;;;;;4957488;28;20058;-61
2022/10/22 12:32:46;;;;;;;2.70;1.90;;;25.40;39.20;;;;;;4948415;29;20248;-61
2022/10/22 12:35:20;;;;;;;4.38;2.75;;;25.30;39.20;;;;;;4949438;28;20061;-61
2022/10/22 12:38:06;;;;;;;3.35;2.70;;;25.30;39.40;;;;;;4932471;29;20051;-61
2022/10/22 12:40:34;;;;;;;2.88;2.33;;;25.30;39.60;;;;;;4948060;29;20543;-61
2022/10/22 12:43:11;;;;;;;4.15;2.58;;;25.20;39.60;;;;;;4944718;28;20043;-61
2022/10/22 12:45:39;;;;;;;2.83;2.50;;;25.20;39.70;;;;;;4949012;28;20058;-61
2022/10/22 12:48:16;;;;;;;2.97;2.63;;;25.20;39.80;;;;;;4948712;29;20055;-61
2022/10/22 12:50:49;;;;;;;4.03;2.65;;;25.10;39.80;;;;;;4949678;28;20510;-61
2022/10/22 12:53:24;;;;;;;3.72;2.80;;;25.10;39.90;;;;;;4950325;28;20063;-60
2022/10/22 12:55:54;;;;;;;4.25;2.67;;;25.10;40.00;;;;;;4967975;28;20215;-60
2022/10/22 12:58:45;;;;;;;4.38;2.60;;;25.10;40.20;;;;;;4968352;28;20047;-60
2022/10/22 13:01:17;;;;;;;3.17;2.35;;;25.10;40.30;;;;;;4969403;28;20584;-61
2022/10/22 13:03:49;;;;;;;5.30;2.97;;;25.00;40.30;;;;;;4967835;28;20043;-61
2022/10/22 13:06:24;;;;;;;2.50;2.30;;;25.00;40.30;;;;;;4968932;28;20485;-60
2022/10/22 13:09:06;;;;;;;2.78;2.55;;;25.00;40.20;;;;;;4968847;28;20050;-60
2022/10/22 13:11:38;;;;;;;3.22;2.17;;;25.00;40.10;;;;;;4968463;28;20047;-60
2022/10/22 13:14:29;;;;;;;3.63;2.75;;;25.00;40.20;;;;;;4970443;28;20051;-60
2022/10/22 13:17:05;;;;;;;3.97;2.83;;;25.00;40.30;;;;;;4967362;28;20047;-60
2022/10/22 13:19:38;;;;;;;3.20;2.55;;;25.00;40.40;;;;;;4971842;28;20106;-60
2022/10/22 13:22:25;;;;;;;3.15;2.85;;;25.00;40.50;;;;;;4971767;28;20055;-60